createdAt,value
2023-01-10T00:01:10.110Z,1.20
2023-01-10T00:04:13.961Z,0.80
2023-01-10T00:07:16.664Z,1.15
2023-01-10T00:10:18.951Z,2.10
2023-01-10T00:13:24.663Z,1.08
2023-01-10T00:16:27.735Z,1.27
2023-01-10T00:19:31.007Z,1.60
2023-01-10T00:22:33.581Z,1.55
2023-01-10T00:25:36.771Z,1.15
2023-01-10T00:28:39.974Z,2.40
2023-01-10T00:31:42.398Z,1.73
2023-01-10T00:34:45.375Z,1.80
2023-01-10T00:37:48.320Z,1.92
2023-01-10T00:40:50.883Z,2.08
2023-01-10T00:43:59.877Z,2.05
2023-01-10T00:47:02.911Z,1.40
2023-01-10T00:50:08.899Z,1.20
2023-01-10T00:53:12.587Z,1.50
2023-01-10T00:56:15.067Z,1.30
2023-01-10T00:59:17.451Z,1.73
2023-01-10T01:02:19.891Z,1.38
2023-01-10T01:05:22.548Z,1.98
2023-01-10T01:08:24.726Z,1.38
2023-01-10T01:11:27.179Z,1.63
2023-01-10T01:14:29.749Z,2.33
2023-01-10T01:17:39.977Z,1.67
2023-01-10T01:20:43.170Z,1.05
2023-01-10T01:23:45.361Z,1.67
2023-01-10T01:26:48.419Z,1.27
2023-01-10T01:29:51.123Z,2.05
2023-01-10T01:32:53.568Z,1.60
2023-01-10T01:35:56.366Z,1.85
2023-01-10T01:39:00.034Z,1.90
2023-01-10T01:42:02.923Z,2.38
2023-01-10T01:45:20.133Z,1.30
2023-01-10T01:48:27.566Z,1.58
2023-01-10T01:51:31.469Z,1.60
2023-01-10T01:54:34.767Z,2.10
2023-01-10T01:57:37.822Z,1.83
2023-01-10T02:00:40.145Z,2.13
2023-01-10T02:03:47.613Z,1.70
2023-01-10T02:06:55.596Z,2.70
2023-01-10T02:10:12.199Z,1.45
2023-01-10T02:13:16.380Z,1.27
2023-01-10T02:16:19.796Z,1.40
2023-01-10T02:19:25.259Z,1.83
2023-01-10T02:22:48.286Z,1.75
2023-01-10T02:25:56.167Z,2.15
2023-01-10T02:29:16.649Z,1.80
2023-01-10T02:32:48.002Z,1.98
2023-01-10T02:36:05.810Z,1.90
2023-01-10T02:39:22.962Z,1.55
2023-01-10T02:42:48.722Z,1.23
2023-01-10T02:45:59.758Z,2.90
2023-01-10T02:49:02.809Z,1.67
2023-01-10T02:52:04.973Z,1.75
2023-01-10T02:55:08.372Z,1.92
2023-01-10T02:58:28.252Z,1.73
2023-01-10T03:01:58.162Z,1.73
2023-01-10T03:05:19.603Z,1.88
2023-01-10T03:08:34.484Z,1.88
2023-01-10T03:11:41.490Z,1.80
2023-01-10T03:14:46.629Z,2.30
2023-01-10T03:17:55.664Z,1.83
2023-01-10T03:20:59.889Z,1.85
2023-01-10T03:24:08.164Z,1.75
2023-01-10T03:27:19.385Z,1.65
2023-01-10T03:30:38.818Z,2.20
2023-01-10T03:33:42.159Z,1.95
2023-01-10T03:37:03.547Z,1.95
2023-01-10T03:40:23.686Z,2.15
2023-01-10T03:43:55.586Z,2.47
2023-01-10T03:47:05.384Z,2.35
2023-01-10T03:50:23.442Z,1.95
2023-01-10T03:53:25.646Z,2.03
2023-01-10T03:56:28.462Z,1.98
2023-01-10T03:59:30.798Z,2.22
2023-01-10T04:02:33.243Z,2.25
2023-01-10T04:05:36.074Z,1.85
2023-01-10T04:08:38.431Z,1.70
2023-01-10T04:11:40.493Z,1.85
2023-01-10T04:14:43.054Z,1.90
2023-01-10T04:17:45.940Z,2.08
2023-01-10T04:20:47.936Z,2.83
2023-01-10T04:23:50.097Z,2.30
2023-01-10T04:26:52.311Z,2.50
2023-01-10T04:29:54.419Z,3.97
2023-01-10T04:32:56.659Z,2.40
2023-01-10T04:35:58.935Z,2.50
2023-01-10T04:39:01.555Z,2.53
2023-01-10T04:42:04.772Z,2.67
2023-01-10T04:45:12.626Z,3.50
2023-01-10T04:48:15.082Z,2.60
2023-01-10T04:51:19.987Z,2.83
2023-01-10T04:54:22.883Z,2.30
2023-01-10T04:57:24.991Z,3.25
2023-01-10T05:00:27.322Z,2.15
2023-01-10T05:03:29.668Z,2.53
2023-01-10T05:06:32.349Z,2.55
2023-01-10T05:09:35.156Z,2.80
2023-01-10T05:12:37.169Z,2.38
2023-01-10T05:15:39.265Z,2.33
2023-01-10T05:18:41.572Z,3.08
2023-01-10T05:21:43.700Z,3.00
2023-01-10T05:24:45.720Z,3.03
2023-01-10T05:27:47.860Z,3.40
2023-01-10T05:30:50.235Z,3.33
2023-01-10T05:33:52.814Z,2.50
2023-01-10T05:36:56.591Z,2.58
2023-01-10T05:40:00.178Z,2.47
2023-01-10T05:43:03.104Z,2.33
2023-01-10T05:46:05.602Z,3.03
2023-01-10T05:49:07.785Z,1.70
2023-01-10T05:52:12.410Z,1.63
2023-01-10T05:55:17.531Z,2.63
2023-01-10T05:58:20.010Z,2.17
2023-01-10T06:01:26.002Z,3.28
2023-01-10T06:04:28.058Z,1.90
2023-01-10T06:07:35.988Z,2.35
2023-01-10T06:10:40.156Z,1.88
2023-01-10T06:13:43.374Z,1.95
2023-01-10T06:16:46.696Z,1.92
2023-01-10T06:19:49.020Z,1.40
2023-01-10T06:22:51.591Z,1.30
2023-01-10T06:25:53.654Z,3.47
2023-01-10T06:28:55.803Z,3.22
2023-01-10T06:31:58.008Z,1.95
2023-01-10T06:35:00.116Z,2.75
2023-01-10T06:38:04.029Z,1.63
2023-01-10T06:41:13.258Z,3.45
2023-01-10T06:44:15.415Z,2.47
2023-01-10T06:47:19.663Z,3.38
2023-01-10T06:50:22.854Z,1.27
2023-01-10T06:53:25.592Z,1.42
2023-01-10T06:56:27.836Z,1.23
2023-01-10T06:59:29.992Z,1.08
2023-01-10T07:02:32.952Z,1.90
2023-01-10T07:05:36.204Z,2.38
2023-01-10T07:08:39.968Z,1.98
2023-01-10T07:11:42.149Z,1.58
2023-01-10T07:14:44.415Z,1.58
2023-01-10T07:17:46.407Z,1.77
2023-01-10T07:20:48.571Z,2.40
2023-01-10T07:23:51.089Z,2.25
2023-01-10T07:26:57.991Z,2.45
2023-01-10T07:30:00.843Z,2.75
2023-01-10T07:33:06.659Z,1.77
2023-01-10T07:36:08.844Z,2.63
2023-01-10T07:39:11.272Z,2.78
2023-01-10T07:42:14.547Z,3.05
2023-01-10T07:45:18.678Z,3.17
2023-01-10T07:48:21.368Z,2.85
2023-01-10T07:51:23.829Z,2.80
2023-01-10T07:54:26.574Z,3.55
2023-01-10T07:57:31.038Z,2.92
2023-01-10T08:00:32.999Z,3.58
2023-01-10T08:03:35.808Z,3.38
2023-01-10T08:06:37.951Z,2.78
2023-01-10T08:09:39.966Z,2.63
2023-01-10T08:12:42.091Z,2.50
2023-01-10T08:15:47.645Z,2.88
2023-01-10T08:18:49.851Z,2.88
2023-01-10T08:21:51.895Z,2.92
2023-01-10T08:24:54.200Z,2.95
2023-01-10T08:27:57.004Z,2.90
2023-01-10T08:30:59.272Z,4.95
2023-01-10T08:34:01.413Z,3.90
2023-01-10T08:37:03.628Z,3.00
2023-01-10T08:40:06.345Z,2.90
2023-01-10T08:43:12.147Z,2.35
2023-01-10T08:46:14.380Z,4.18
2023-01-10T08:49:16.611Z,3.00
2023-01-10T08:52:19.063Z,3.03
2023-01-10T08:55:22.790Z,2.00
2023-01-10T08:58:24.825Z,2.25
2023-01-10T09:01:27.069Z,2.45
2023-01-10T09:04:32.799Z,3.33
2023-01-10T09:07:36.407Z,1.92
2023-01-10T09:10:38.406Z,1.50
2023-01-10T09:13:40.942Z,1.50
2023-01-10T09:16:43.530Z,1.48
2023-01-10T09:19:46.279Z,2.58
2023-01-10T09:22:48.435Z,2.05
2023-01-10T09:25:54.278Z,2.58
2023-01-10T09:28:58.998Z,1.60
2023-01-10T09:32:01.409Z,2.38
2023-01-10T09:35:06.121Z,2.35
2023-01-10T09:38:11.975Z,2.05
2023-01-10T09:41:51.940Z,1.80
2023-01-10T09:45:03.761Z,2.15
2023-01-10T09:48:14.889Z,1.85
2023-01-10T09:51:42.657Z,2.42
2023-01-10T09:54:46.182Z,1.75
2023-01-10T09:57:49.149Z,2.35
2023-01-10T10:01:05.632Z,3.10
2023-01-10T10:04:37.588Z,1.85
2023-01-10T10:07:44.057Z,2.47
2023-01-10T10:11:11.405Z,2.25
2023-01-10T10:14:42.593Z,1.70
2023-01-10T10:17:51.713Z,2.67
2023-01-10T10:21:01.807Z,2.50
2023-01-10T10:24:29.816Z,2.35
2023-01-10T10:27:39.436Z,1.60
2023-01-10T10:31:00.482Z,1.60
2023-01-10T10:34:05.339Z,1.73
2023-01-10T10:37:19.486Z,1.92
2023-01-10T10:40:26.338Z,2.08
2023-01-10T10:43:36.908Z,2.47
2023-01-10T10:46:39.890Z,2.00
2023-01-10T10:49:59.879Z,2.10
2023-01-10T10:53:05.039Z,2.65
2023-01-10T10:56:14.039Z,1.25
2023-01-10T10:59:20.352Z,1.63
2023-01-10T11:02:38.077Z,2.55
2023-01-10T11:05:43.510Z,2.13
2023-01-10T11:08:47.676Z,2.45
2023-01-10T11:11:52.541Z,2.40
2023-01-10T11:14:55.468Z,2.63
2023-01-10T11:18:33.064Z,2.25
2023-01-10T11:21:38.905Z,3.28
2023-01-10T11:24:53.441Z,3.45
2023-01-10T11:28:04.436Z,3.78
2023-01-10T11:31:15.272Z,3.63
2023-01-10T11:34:30.289Z,2.97
2023-01-10T11:37:36.420Z,3.03
2023-01-10T11:40:40.587Z,3.05
2023-01-10T11:43:42.687Z,2.80
2023-01-10T11:46:50.831Z,2.25
2023-01-10T11:50:04.137Z,3.40
2023-01-10T11:53:07.643Z,2.75
2023-01-10T11:56:25.118Z,3.17
2023-01-10T11:59:28.557Z,3.00
2023-01-10T12:02:39.852Z,2.90
2023-01-10T12:05:52.009Z,2.40
2023-01-10T12:08:56.482Z,2.20
2023-01-10T12:12:18.411Z,2.15
2023-01-10T12:15:32.071Z,2.15
2023-01-10T12:18:34.496Z,2.13
2023-01-10T12:21:41.966Z,1.83
2023-01-10T12:24:52.352Z,1.48
2023-01-10T12:27:57.876Z,2.10
2023-01-10T12:31:01.389Z,2.00
2023-01-10T12:34:14.961Z,2.30
2023-01-10T12:37:32.244Z,1.73
2023-01-10T12:41:01.243Z,1.83
2023-01-10T12:44:15.199Z,2.10
2023-01-10T12:47:32.207Z,2.35
2023-01-10T12:50:45.736Z,2.38
2023-01-10T12:53:54.712Z,2.47
2023-01-10T12:57:05.641Z,3.28
2023-01-10T13:00:21.015Z,2.80
2023-01-10T13:03:31.754Z,1.83
2023-01-10T13:06:38.512Z,1.90
2023-01-10T13:09:43.370Z,2.15
2023-01-10T13:12:55.268Z,2.70
2023-01-10T13:16:34.183Z,2.85
2023-01-10T13:19:36.233Z,3.92
2023-01-10T13:22:38.528Z,2.70
2023-01-10T13:25:40.726Z,2.50
2023-01-10T13:28:56.264Z,2.25
2023-01-10T13:32:01.606Z,2.80
2023-01-10T13:35:19.460Z,2.17
2023-01-10T13:38:34.822Z,1.50
2023-01-10T13:42:14.255Z,2.40
2023-01-10T13:45:30.169Z,1.90
2023-01-10T13:48:32.242Z,1.70
2023-01-10T13:51:36.344Z,2.40
2023-01-10T13:54:38.432Z,2.83
2023-01-10T13:57:51.736Z,1.88
2023-01-10T14:01:17.554Z,2.40
2023-01-10T14:04:23.803Z,2.20
2023-01-10T14:07:42.441Z,2.17
2023-01-10T14:10:44.505Z,2.60
2023-01-10T14:13:56.599Z,2.80
2023-01-10T14:17:30.782Z,2.85
2023-01-10T14:20:44.837Z,2.88
2023-01-10T14:23:52.406Z,2.28
2023-01-10T14:26:57.481Z,3.00
2023-01-10T14:30:02.230Z,2.33
2023-01-10T14:33:16.252Z,2.83
2023-01-10T14:36:27.583Z,2.80
2023-01-10T14:39:42.542Z,3.20
2023-01-10T14:44:29.228Z,3.90
2023-01-10T14:47:34.737Z,2.70
2023-01-10T14:50:36.838Z,2.53
2023-01-10T14:53:45.892Z,3.65
2023-01-10T14:56:53.213Z,2.45
2023-01-10T15:00:09.334Z,2.55
2023-01-10T15:03:19.361Z,3.10
2023-01-10T15:06:21.639Z,3.20
2023-01-10T15:09:25.292Z,3.47
2023-01-10T15:12:31.469Z,3.92
2023-01-10T15:15:35.453Z,2.92
2023-01-10T15:18:47.261Z,3.88
2023-01-10T15:21:49.683Z,3.83
2023-01-10T15:25:00.012Z,3.83
2023-01-10T15:28:03.035Z,3.50
2023-01-10T15:31:08.752Z,3.13
2023-01-10T15:34:19.566Z,2.35
2023-01-10T15:37:26.805Z,2.55
2023-01-10T15:40:37.973Z,2.38
2023-01-10T15:43:40.669Z,2.88
2023-01-10T15:46:55.969Z,3.50
2023-01-10T15:50:00.268Z,5.50
2023-01-10T15:53:06.255Z,4.82
2023-01-10T15:56:16.308Z,4.18
2023-01-10T15:59:33.032Z,3.70
2023-01-10T16:02:35.419Z,3.95
2023-01-10T16:05:37.634Z,3.20
2023-01-10T16:08:39.951Z,3.72
2023-01-10T16:12:06.881Z,5.47
2023-01-10T16:15:30.200Z,4.07
2023-01-10T16:18:33.143Z,4.50
2023-01-10T16:21:39.669Z,4.85
2023-01-10T16:24:43.158Z,4.15
2023-01-10T16:27:46.416Z,4.40
2023-01-10T16:30:48.782Z,3.90
2023-01-10T16:33:52.537Z,4.90
2023-01-10T16:36:54.702Z,4.20
2023-01-10T16:39:59.749Z,4.28
2023-01-10T16:43:21.941Z,3.72
2023-01-10T16:46:26.447Z,2.78
2023-01-10T16:49:29.755Z,3.13
2023-01-10T16:52:32.511Z,3.80
2023-01-10T16:55:54.871Z,3.42
2023-01-10T16:58:59.995Z,3.00
2023-01-10T17:02:06.374Z,4.25
2023-01-10T17:09:24.187Z,3.80
2023-01-10T17:12:37.452Z,2.47
2023-01-10T17:15:39.630Z,4.22
2023-01-10T17:18:42.191Z,3.88
2023-01-10T17:21:44.335Z,4.40
2023-01-10T17:24:46.421Z,5.60
2023-01-10T17:27:48.918Z,3.90
2023-01-10T17:30:52.376Z,3.85
2023-01-10T17:33:57.725Z,5.25
2023-01-10T17:37:00.169Z,5.50
2023-01-10T17:40:05.397Z,5.18
2023-01-10T17:43:07.865Z,5.28
2023-01-10T17:46:11.285Z,4.63
2023-01-10T17:49:13.720Z,5.03
2023-01-10T17:52:19.142Z,5.70
2023-01-10T17:55:23.059Z,5.68
2023-01-10T17:58:28.610Z,4.40
2023-01-10T18:01:31.093Z,5.65
2023-01-10T18:04:38.393Z,6.10
2023-01-10T18:07:40.844Z,5.22
2023-01-10T18:10:42.948Z,5.45
2023-01-10T18:13:51.408Z,5.18
2023-01-10T18:16:57.033Z,5.60
2023-01-10T18:19:59.340Z,5.25
2023-01-10T18:23:20.473Z,5.63
2023-01-10T18:26:24.085Z,4.88
2023-01-10T18:29:26.725Z,5.05
2023-01-10T18:32:31.508Z,5.22
2023-01-10T18:35:36.455Z,5.45
2023-01-10T18:38:40.397Z,4.93
2023-01-10T18:41:42.981Z,3.90
2023-01-10T18:44:45.574Z,4.88
2023-01-10T18:47:52.557Z,4.03
2023-01-10T18:50:58.168Z,3.80
2023-01-10T18:54:07.121Z,5.65
2023-01-10T18:57:15.250Z,4.97
2023-01-10T19:00:17.731Z,5.80
2023-01-10T19:03:20.872Z,6.25
2023-01-10T19:06:25.422Z,5.45
2023-01-10T19:09:29.271Z,4.35
2023-01-10T19:12:31.398Z,4.50
2023-01-10T19:15:33.643Z,5.97
2023-01-10T19:18:36.705Z,4.45
2023-01-10T19:21:45.506Z,4.22
2023-01-10T19:24:47.708Z,4.15
2023-01-10T19:27:52.628Z,4.13
2023-01-10T19:31:04.292Z,5.82
2023-01-10T19:34:07.226Z,4.43
2023-01-10T19:37:11.938Z,4.47
2023-01-10T19:40:14.629Z,4.38
2023-01-10T19:43:18.053Z,5.45
2023-01-10T19:46:20.208Z,5.80
2023-01-10T19:49:24.525Z,5.35
2023-01-10T19:52:27.711Z,5.32
2023-01-10T19:55:29.909Z,5.30
2023-01-10T19:58:33.094Z,5.15
2023-01-10T20:01:35.436Z,4.72
2023-01-10T20:04:38.198Z,4.97
2023-01-10T20:07:40.501Z,5.25
2023-01-10T20:10:42.759Z,5.05
2023-01-10T20:13:48.769Z,5.88
2023-01-10T20:16:52.555Z,6.20
2023-01-10T20:19:55.854Z,5.93
2023-01-10T20:22:58.109Z,4.88
2023-01-10T20:26:06.457Z,5.68
2023-01-10T20:32:15.220Z,5.25
2023-01-10T20:35:26.711Z,6.13
2023-01-10T20:38:30.824Z,5.45
2023-01-10T20:41:33.516Z,6.00
2023-01-10T20:44:35.876Z,5.82
2023-01-10T20:47:41.560Z,5.55
2023-01-10T20:51:05.246Z,5.18
2023-01-10T20:54:16.876Z,7.18
2023-01-10T20:57:20.513Z,5.30
2023-01-10T21:00:22.851Z,5.13
2023-01-10T21:03:26.630Z,5.22
2023-01-10T21:06:31.592Z,5.65
2023-01-10T21:09:34.078Z,5.00
2023-01-10T21:12:36.072Z,6.13
2023-01-10T21:15:43.748Z,5.47
2023-01-10T21:18:46.913Z,5.43
2023-01-10T21:21:49.026Z,4.65
2023-01-10T21:25:12.472Z,5.38
2023-01-10T21:28:14.724Z,5.47
2023-01-10T21:31:19.768Z,5.57
2023-01-10T21:34:22.241Z,6.55
2023-01-10T21:37:24.579Z,5.95
2023-01-10T21:40:27.746Z,4.88
2023-01-10T21:43:32.307Z,5.47
2023-01-10T21:46:38.014Z,5.35
2023-01-10T21:49:40.220Z,6.03
2023-01-10T21:52:45.836Z,5.28
2023-01-10T21:55:53.739Z,5.50
2023-01-10T21:58:56.230Z,4.63
2023-01-10T22:01:58.613Z,2.97
2023-01-10T22:05:02.007Z,3.30
2023-01-10T22:08:05.563Z,5.13
2023-01-10T22:11:17.081Z,5.70
2023-01-10T22:14:19.575Z,6.70
2023-01-10T22:17:22.191Z,4.55
2023-01-10T22:20:24.406Z,5.35
2023-01-10T22:23:29.134Z,3.92
2023-01-10T22:26:32.627Z,4.10
2023-01-10T22:29:36.622Z,4.82
2023-01-10T22:32:41.746Z,4.72
2023-01-10T22:35:46.440Z,5.73
2023-01-10T22:38:52.046Z,5.57
2023-01-10T22:41:55.573Z,4.32
2023-01-10T22:44:58.214Z,6.15
2023-01-10T22:48:02.617Z,4.75
2023-01-10T22:51:05.868Z,6.03
2023-01-10T22:54:12.707Z,5.63
2023-01-10T22:57:19.518Z,6.32
2023-01-10T23:00:23.014Z,6.35
2023-01-10T23:03:25.448Z,6.13
2023-01-10T23:06:29.093Z,6.05
2023-01-10T23:09:31.243Z,5.22
2023-01-10T23:12:35.048Z,5.32
2023-01-10T23:15:37.274Z,4.72
2023-01-10T23:18:40.923Z,5.70
2023-01-10T23:21:44.519Z,5.38
2023-01-10T23:24:47.753Z,7.28
2023-01-10T23:27:52.545Z,6.68
2023-01-10T23:30:56.048Z,6.22
2023-01-10T23:34:00.908Z,7.03
2023-01-10T23:37:03.785Z,6.40
2023-01-10T23:40:06.620Z,6.13
2023-01-10T23:43:08.639Z,5.78
2023-01-10T23:46:10.926Z,7.05
2023-01-10T23:49:13.629Z,6.03
2023-01-10T23:52:15.843Z,5.72
2023-01-10T23:55:20.084Z,6.85
2023-01-10T23:58:22.582Z,5.45
